Time;durP1;ratioP1;P1;durP2;ratioP2;P2;SDS_P1;SDS_P2;PMS_P1;PMS_P2;Temp;Humidity;BMP_temperature;BMP_pressure;BME280_temperature;BME280_humidity;BME280_pressure;Samples;Min_cycle;Max_cycle;Signal;HPM_P1;HPM_P2
2022/11/25 00:01:48;;;;;;;4.93;2.28;;;;;;;22.30;46.12;94686.00;5042985;28;20045;-62
2022/11/25 00:04:13;;;;;;;4.60;2.40;;;;;;;22.27;46.13;94685.06;5012588;28;20044;-60
2022/11/25 00:06:39;;;;;;;3.90;2.10;;;;;;;21.83;46.11;94640.47;5045781;28;20102;-61
2022/11/25 00:09:09;;;;;;;4.10;2.60;;;;;;;22.17;45.86;94692.03;5028934;28;20569;-63
2022/11/25 00:11:36;;;;;;;3.40;2.15;;;;;;;22.06;46.30;94675.84;5028271;28;20044;-61
2022/11/25 00:14:02;;;;;;;3.00;1.98;;;;;;;22.27;45.96;94700.63;5010638;28;20063;-60
2022/11/25 00:16:27;;;;;;;4.03;1.98;;;;;;;21.02;45.95;94521.09;5046196;28;20025;-60
2022/11/25 00:18:53;;;;;;;5.47;2.25;;;;;;;22.21;45.92;94703.41;5012390;28;20048;-62
2022/11/25 00:21:21;;;;;;;3.92;2.03;;;;;;;21.64;46.03;94623.31;5028370;28;20053;-60
2022/11/25 00:23:56;;;;;;;3.63;2.20;;;;;;;22.10;46.20;94692.59;5028362;28;20513;-61
2022/11/25 00:26:22;;;;;;;3.10;1.85;;;;;;;21.01;46.31;94546.75;5044217;28;20528;-64
2022/11/25 00:28:48;;;;;;;4.55;2.20;;;;;;;22.14;46.12;94714.81;5019245;28;20139;-61
2022/11/25 00:31:18;;;;;;;3.42;2.03;;;;;;;21.94;46.10;94685.34;5037700;28;20513;-60
2022/11/25 00:33:43;;;;;;;3.00;2.00;;;;;;;22.08;46.36;94711.41;5024958;28;20053;-61
2022/11/25 00:36:16;;;;;;;3.85;2.08;;;;;;;21.86;46.38;94682.94;5010528;28;20153;-62
2022/11/25 00:38:42;;;;;;;3.92;2.00;;;;;;;20.92;46.11;94534.75;5011360;28;20048;-60
2022/11/25 00:46:35;;;;;;;3.40;1.90;;;;;;;22.09;46.05;94717.56;5045665;28;20051;-61
2022/11/25 00:49:00;;;;;;;3.00;2.00;;;;;;;22.10;46.49;94711.63;5043075;28;20026;-62
2022/11/25 00:51:26;;;;;;;3.03;2.00;;;;;;;22.05;46.48;94706.97;4996225;28;20100;-60
2022/11/25 00:53:51;;;;;;;3.05;1.75;;;;;;;22.09;46.04;94712.88;5008417;28;20186;-61
2022/11/25 00:56:17;;;;;;;3.70;1.98;;;;;;;22.07;46.38;94699.03;4993894;28;20107;-62
2022/11/25 00:58:43;;;;;;;2.83;1.92;;;;;;;22.05;46.28;94712.41;5004669;28;20038;-62
2022/11/25 01:01:08;;;;;;;3.28;1.65;;;;;;;21.48;46.08;94637.78;5011004;28;20481;-62
2022/11/25 01:03:35;;;;;;;2.88;1.70;;;;;;;21.31;46.09;94609.97;5010866;28;20071;-62
2022/11/25 01:06:04;;;;;;;3.10;1.65;;;;;;;21.99;46.15;94717.16;5010619;28;20106;-61
2022/11/25 01:08:30;;;;;;;2.90;1.75;;;;;;;21.95;46.18;94719.41;5007965;28;20053;-61
2022/11/25 01:10:59;;;;;;;2.88;1.70;;;;;;;22.00;46.34;94721.38;4985682;28;20049;-63
2022/11/25 01:13:25;;;;;;;2.97;2.03;;;;;;;22.00;46.41;94715.19;5010258;28;20036;-61
2022/11/25 01:15:50;;;;;;;2.38;1.67;;;;;;;21.95;46.38;94705.81;5027253;28;20037;-62
2022/11/25 01:18:16;;;;;;;2.50;1.60;;;;;;;21.98;46.26;94715.69;5010341;28;20044;-62
2022/11/25 01:20:41;;;;;;;3.17;1.92;;;;;;;21.82;46.53;94698.78;5010403;28;20525;-62
2022/11/25 01:23:07;;;;;;;2.78;1.55;;;;;;;21.93;46.24;94704.88;4989155;28;20461;-63
2022/11/25 01:25:36;;;;;;;2.67;1.83;;;;;;;21.83;46.26;94700.25;4990359;28;20064;-62
2022/11/25 01:28:01;;;;;;;3.30;1.88;;;;;;;21.83;46.58;94697.53;4990673;28;20037;-61
2022/11/25 01:30:27;;;;;;;2.88;1.70;;;;;;;21.92;46.42;94705.38;4962154;28;20072;-64
2022/11/25 01:32:52;;;;;;;2.95;1.77;;;;;;;21.49;46.24;94639.25;4989805;28;20084;-62
2022/11/25 01:35:18;;;;;;;3.22;1.80;;;;;;;21.77;46.27;94681.28;5007045;28;20050;-62
2022/11/25 01:37:43;;;;;;;2.80;1.95;;;;;;;21.88;46.44;94710.34;5007346;28;20667;-62
2022/11/25 01:40:09;;;;;;;2.78;1.77;;;;;;;21.86;46.18;94677.50;4991801;28;20526;-61
2022/11/25 01:42:34;;;;;;;3.03;1.75;;;;;;;21.37;46.27;94610.66;4990418;28;20415;-61
2022/11/25 01:45:23;;;;;;;2.53;1.60;;;;;;;21.92;46.87;94687.06;4989638;28;20072;-64
2022/11/25 01:47:49;;;;;;;2.25;1.60;;;;;;;21.84;46.11;94672.56;5006851;28;20053;-62
2022/11/25 01:50:14;;;;;;;2.53;1.80;;;;;;;21.87;46.40;94673.53;4989974;28;20132;-62
2022/11/25 01:52:43;;;;;;;2.70;1.70;;;;;;;21.82;46.17;94655.28;5006371;28;20046;-63
2022/11/25 01:55:11;;;;;;;2.75;1.92;;;;;;;20.71;46.18;94492.97;4973164;28;20525;-62
2022/11/25 01:57:42;;;;;;;2.45;1.70;;;;;;;21.89;46.27;94665.63;4983311;28;20042;-62
2022/11/25 02:00:08;;;;;;;1.77;1.33;;;;;;;21.73;46.27;94647.47;5007359;28;20063;-63
2022/11/25 02:02:34;;;;;;;2.95;1.48;;;;;;;21.79;46.29;94656.31;4983820;28;20042;-61
2022/11/25 02:05:03;;;;;;;2.67;1.70;;;;;;;21.87;46.48;94674.28;4981191;28;20663;-63
2022/11/25 02:07:36;;;;;;;2.90;1.60;;;;;;;21.82;46.69;94696.06;4999739;28;20541;-61
2022/11/25 02:10:04;;;;;;;3.08;1.80;;;;;;;21.78;46.19;94682.00;5004326;28;20104;-63
2022/11/25 02:12:30;;;;;;;2.90;1.90;;;;;;;21.26;46.40;94594.47;4988244;28;20434;-61
2022/11/25 02:14:56;;;;;;;2.15;1.20;;;;;;;21.84;46.68;94682.69;4989908;28;20041;-63
2022/11/25 02:17:21;;;;;;;2.47;1.40;;;;;;;21.24;46.18;94605.09;4974346;28;20714;-65
2022/11/25 02:20:10;;;;;;;2.63;1.52;;;;;;;21.86;46.55;94683.66;5005395;28;20057;-62
2022/11/25 02:23:05;;;;;;;2.95;1.50;;;;;;;21.83;46.27;94689.38;4993597;28;20124;-62
2022/11/25 02:25:36;;;;;;;2.33;1.40;;;;;;;21.79;46.31;94688.91;5019901;28;20059;-63
2022/11/25 02:28:12;;;;;;;;;;;;;;;21.80;46.12;94687.69;4994094;28;20135;-63
2022/11/25 02:30:37;;;;;;;2.25;1.35;;;;;;;21.70;46.19;94678.38;4993959;28;19921;-62
2022/11/25 02:33:03;;;;;;;2.13;1.48;;;;;;;21.79;46.28;94694.34;4989858;28;20103;-62
2022/11/25 02:35:39;;;;;;;2.80;1.45;;;;;;;21.59;46.51;94681.16;5008871;28;20041;-62
2022/11/25 02:38:17;;;;;;;2.42;1.27;;;;;;;21.82;46.19;94720.53;5010084;28;20040;-61
2022/11/25 02:40:50;;;;;;;1.90;1.55;;;;;;;21.22;46.24;94621.16;5009333;28;20037;-63
2022/11/25 02:43:15;;;;;;;2.22;1.35;;;;;;;21.78;46.54;94714.63;5025356;28;20063;-63
2022/11/25 02:46:00;;;;;;;2.00;1.40;;;;;;;21.75;46.24;94693.88;4992798;28;20410;-61
2022/11/25 02:48:27;;;;;;;2.42;1.30;;;;;;;21.66;46.35;94691.50;5025123;28;20037;-62
2022/11/25 02:50:52;;;;;;;2.70;1.50;;;;;;;21.06;46.27;94592.16;4991775;28;20052;-64
2022/11/25 02:53:18;;;;;;;2.22;1.42;;;;;;;20.55;46.33;94523.59;5008573;28;20049;-62
2022/11/25 02:55:43;;;;;;;1.73;1.40;;;;;;;21.65;46.30;94695.47;4978810;28;20477;-61
2022/11/25 02:58:09;;;;;;;2.65;1.45;;;;;;;20.78;46.29;94568.41;4993155;28;20029;-62
2022/11/25 03:00:34;;;;;;;2.17;1.40;;;;;;;20.91;46.32;94580.16;5003972;28;20038;-63
2022/11/25 03:03:00;;;;;;;1.83;1.30;;;;;;;21.72;46.38;94711.19;5006407;28;20528;-62
2022/11/25 03:05:25;;;;;;;2.10;1.38;;;;;;;21.60;46.46;94709.81;5009395;28;20702;-64
2022/11/25 03:07:51;;;;;;;2.75;1.27;;;;;;;21.07;46.18;94615.31;5008923;28;20041;-62
2022/11/25 03:10:16;;;;;;;2.13;1.35;;;;;;;21.62;46.50;94701.91;4992904;28;20140;-61
2022/11/25 03:12:42;;;;;;;1.98;1.42;;;;;;;21.71;46.41;94704.31;5025219;28;20135;-63
2022/11/25 03:15:08;;;;;;;2.63;1.60;;;;;;;21.66;46.15;94703.09;5007171;28;20141;-63
2022/11/25 03:17:33;;;;;;;2.42;1.48;;;;;;;21.62;46.25;94712.78;4994173;28;20125;-62
2022/11/25 03:19:58;;;;;;;2.17;1.30;;;;;;;21.69;46.42;94731.25;5020780;28;20037;-61
2022/11/25 03:22:24;;;;;;;2.20;1.50;;;;;;;21.35;45.73;94672.91;5025718;28;20516;-63
2022/11/25 03:24:50;;;;;;;2.03;1.23;;;;;;;21.64;46.23;94713.00;5009281;28;20497;-60
2022/11/25 03:27:15;;;;;;;1.88;1.17;;;;;;;21.63;46.29;94708.81;5009138;28;20055;-62
2022/11/25 03:29:40;;;;;;;2.10;1.27;;;;;;;21.60;46.30;94726.84;5008358;28;20140;-61
2022/11/25 03:32:06;;;;;;;2.25;1.27;;;;;;;21.54;46.23;94707.13;5024688;28;20052;-62
2022/11/25 03:34:31;;;;;;;1.83;1.20;;;;;;;21.61;46.28;94735.75;5007893;28;20032;-60
2022/11/25 03:36:57;;;;;;;2.15;1.15;;;;;;;21.42;46.00;94696.06;5025610;28;20460;-62
2022/11/25 03:39:22;;;;;;;1.70;1.23;;;;;;;21.55;46.05;94724.16;5004769;28;20053;-61
2022/11/25 03:41:48;;;;;;;2.58;1.40;;;;;;;21.12;46.06;94655.28;5004630;28;20048;-63
2022/11/25 03:44:14;;;;;;;1.60;1.20;;;;;;;20.79;45.98;94610.56;5007786;28;20756;-60
2022/11/25 03:46:39;;;;;;;2.05;1.20;;;;;;;21.56;46.26;94728.38;5005053;28;20084;-61
2022/11/25 03:49:05;;;;;;;1.63;1.30;;;;;;;21.58;46.20;94734.78;5007654;28;20437;-62
2022/11/25 03:51:30;;;;;;;2.28;1.50;;;;;;;21.57;46.25;94730.59;4991098;28;20521;-61
2022/11/25 03:53:55;;;;;;;1.80;1.40;;;;;;;21.63;46.36;94746.84;5022130;28;20044;-60
2022/11/25 03:56:21;;;;;;;2.00;1.30;;;;;;;21.56;46.10;94736.53;5004801;28;20088;-62
2022/11/25 03:58:46;;;;;;;1.80;1.27;;;;;;;21.61;46.28;94743.88;4974472;28;20522;-62
2022/11/25 04:01:12;;;;;;;1.73;1.30;;;;;;;21.05;46.05;94677.53;4999837;28;20033;-63
2022/11/25 04:03:37;;;;;;;1.90;1.33;;;;;;;20.90;46.11;94653.94;4991772;28;20528;-61
2022/11/25 04:06:03;;;;;;;1.38;1.00;;;;;;;21.51;46.28;94767.19;5010089;28;20462;-60
2022/11/25 04:08:28;;;;;;;1.98;1.10;;;;;;;21.59;46.20;94768.13;5008008;28;20782;-61
2022/11/25 04:10:54;;;;;;;2.22;1.30;;;;;;;21.60;46.22;94775.03;5024950;28;20046;-61
2022/11/25 04:13:19;;;;;;;1.50;0.98;;;;;;;21.50;46.16;94760.25;5024420;28;20034;-61
2022/11/25 04:15:46;;;;;;;1.95;1.38;;;;;;;21.50;46.07;94760.25;4992675;28;20489;-64
2022/11/25 04:18:12;;;;;;;1.70;1.02;;;;;;;21.60;46.18;94769.59;4998580;28;20108;-62
2022/11/25 04:20:37;;;;;;;1.63;1.20;;;;;;;21.59;46.21;94776.28;5020926;28;20519;-61
2022/11/25 04:23:05;;;;;;;2.00;1.20;;;;;;;21.58;46.19;94769.34;5027496;28;20049;-61
2022/11/25 04:25:30;;;;;;;2.42;1.50;;;;;;;21.54;46.11;94774.31;5012190;28;20059;-61
2022/11/25 04:27:56;;;;;;;2.30;1.50;;;;;;;21.57;46.23;94778.75;5011816;28;20080;-61
2022/11/25 04:30:21;;;;;;;1.92;1.30;;;;;;;21.00;46.16;94701.97;5011070;28;20045;-61
2022/11/25 04:32:47;;;;;;;2.20;1.23;;;;;;;21.40;46.27;94778.06;5011278;28;20044;-62
2022/11/25 04:35:12;;;;;;;1.48;1.10;;;;;;;20.80;46.27;94674.47;5011864;28;20430;-61
2022/11/25 04:37:38;;;;;;;2.10;1.30;;;;;;;21.41;46.36;94778.81;5008050;28;20138;-61
2022/11/25 04:40:04;;;;;;;1.67;1.08;;;;;;;21.32;46.34;94766.25;4988252;28;20033;-62
2022/11/25 04:42:33;;;;;;;1.60;1.30;;;;;;;21.51;46.24;94799.78;4977939;28;20111;-61
2022/11/25 04:44:59;;;;;;;2.00;1.20;;;;;;;21.51;46.17;94799.78;5037648;28;20052;-62
2022/11/25 04:47:25;;;;;;;1.88;1.27;;;;;;;21.37;46.15;94784.50;5007471;28;20051;-62
2022/11/25 04:49:50;;;;;;;1.73;1.10;;;;;;;21.43;46.39;94794.13;5007526;28;20033;-61
2022/11/25 04:52:16;;;;;;;1.55;1.00;;;;;;;21.49;46.34;94807.69;4991784;28;20029;-61
2022/11/25 04:54:41;;;;;;;1.83;1.30;;;;;;;21.23;46.25;94774.69;5007144;28;20407;-62
2022/11/25 04:57:10;;;;;;;1.73;1.20;;;;;;;21.47;46.17;94815.59;5007518;28;20049;-62
2022/11/25 04:59:38;;;;;;;1.92;1.20;;;;;;;21.48;46.34;94817.09;5009042;28;20042;-61
2022/11/25 05:02:14;;;;;;;1.63;0.95;;;;;;;21.40;46.28;94826.22;4987182;28;20041;-61
2022/11/25 05:04:40;;;;;;;2.05;1.27;;;;;;;20.55;46.26;94694.47;4994672;28;20102;-62
2022/11/25 05:07:06;;;;;;;1.95;0.90;;;;;;;21.46;46.51;94839.31;5009731;28;20037;-61
2022/11/25 05:09:31;;;;;;;1.50;0.90;;;;;;;21.56;46.35;94831.63;5005707;28;20049;-61
2022/11/25 05:11:56;;;;;;;1.60;1.25;;;;;;;21.57;46.15;94836.53;4987769;28;20054;-61
2022/11/25 05:14:24;;;;;;;2.67;1.20;;;;;;;21.67;46.16;94850.56;4983301;28;20092;-61
2022/11/25 05:16:49;;;;;;;1.80;1.05;;;;;;;21.86;45.68;94856.91;5019571;28;20160;-61
2022/11/25 05:19:15;;;;;;;1.60;1.00;;;;;;;21.92;45.49;94856.34;5006939;28;20495;-60
2022/11/25 05:21:40;;;;;;;1.48;1.08;;;;;;;22.05;45.41;94869.41;5023872;28;20048;-62
2022/11/25 05:24:06;;;;;;;1.80;1.00;;;;;;;21.97;45.31;94863.75;5023953;28;20045;-61
2022/11/25 05:26:31;;;;;;;1.40;1.00;;;;;;;21.54;45.27;94809.66;4986516;28;20738;-61
2022/11/25 05:28:57;;;;;;;1.52;1.08;;;;;;;22.07;45.10;94862.19;5003782;28;20045;-60
2022/11/25 05:31:22;;;;;;;1.40;0.80;;;;;;;21.51;44.94;94767.19;5003048;28;20129;-61
2022/11/25 05:33:47;;;;;;;2.13;1.30;;;;;;;22.24;44.85;94887.34;4985639;28;20449;-61
2022/11/25 05:36:13;;;;;;;1.25;0.90;;;;;;;22.33;44.72;94884.34;4992356;28;20537;-61
2022/11/25 05:38:38;;;;;;;2.08;1.00;;;;;;;21.60;44.65;94785.91;5000330;28;20791;-60
2022/11/25 05:41:05;;;;;;;1.60;1.00;;;;;;;21.95;44.41;94844.47;4986804;28;20046;-60
2022/11/25 05:43:31;;;;;;;1.98;1.10;;;;;;;21.83;44.49;94828.00;4985117;28;20089;-62
2022/11/25 05:45:56;;;;;;;1.70;1.20;;;;;;;22.54;44.25;94907.16;4999704;28;20061;-61
2022/11/25 05:48:22;;;;;;;1.80;0.90;;;;;;;22.48;44.14;94901.03;4999600;28;20442;-61
2022/11/25 05:50:47;;;;;;;2.03;1.00;;;;;;;22.60;44.25;94907.84;4982930;28;20045;-61
2022/11/25 05:53:16;;;;;;;1.33;0.90;;;;;;;22.77;43.43;94911.22;5006767;28;20314;-63
2022/11/25 05:55:41;;;;;;;1.40;0.98;;;;;;;23.04;43.47;94908.28;4988594;28;20057;-62
2022/11/25 05:58:07;;;;;;;1.98;0.77;;;;;;;22.51;42.74;94804.75;5015760;28;20442;-61
2022/11/25 06:00:32;;;;;;;1.33;0.88;;;;;;;23.17;42.93;94906.41;5010791;28;20042;-60
2022/11/25 06:02:58;;;;;;;1.45;0.90;;;;;;;23.09;42.81;94910.94;5023824;28;20159;-62
2022/11/25 06:05:23;;;;;;;1.10;0.80;;;;;;;23.22;43.29;94913.78;5005970;28;20236;-62
2022/11/25 06:07:49;;;;;;;1.33;0.80;;;;;;;23.23;43.12;94926.16;4956297;28;20424;-62
2022/11/25 06:10:18;;;;;;;1.52;0.93;;;;;;;23.48;42.90;94919.44;5009822;28;20032;-62
2022/11/25 06:12:43;;;;;;;1.45;1.02;;;;;;;23.38;42.83;94904.72;5006225;28;20152;-62
2022/11/25 06:15:09;;;;;;;1.17;0.85;;;;;;;23.46;42.57;94957.38;5024311;28;20798;-60
2022/11/25 06:17:34;;;;;;;1.90;0.93;;;;;;;23.60;42.35;94939.88;5012887;28;20041;-61
2022/11/25 06:20:00;;;;;;;1.60;1.17;;;;;;;23.77;42.55;94940.50;5003817;28;20371;-61
2022/11/25 06:22:25;;;;;;;1.92;1.00;;;;;;;23.59;42.41;94936.44;5008277;28;20132;-62
2022/11/25 06:24:51;;;;;;;1.88;0.90;;;;;;;23.56;42.85;94953.09;5011586;28;20030;-61
2022/11/25 06:27:17;;;;;;;2.63;0.88;;;;;;;23.11;42.50;94875.75;4987460;28;20140;-61
2022/11/25 06:29:42;;;;;;;1.13;0.70;;;;;;;23.92;41.75;94972.28;5000804;28;20041;-61
2022/11/25 06:32:08;;;;;;;1.50;0.90;;;;;;;24.00;41.85;94964.97;5023008;28;20029;-58
2022/11/25 06:34:35;;;;;;;1.30;0.85;;;;;;;23.84;42.25;94972.63;5023452;28;20048;-61
2022/11/25 06:37:00;;;;;;;1.20;0.80;;;;;;;23.78;41.96;94952.84;4997641;28;20060;-63
2022/11/25 06:39:26;;;;;;;1.40;0.80;;;;;;;24.02;41.85;94973.41;4983562;28;20041;-60
2022/11/25 06:41:51;;;;;;;1.20;0.70;;;;;;;23.97;41.57;94965.28;4986181;28;20038;-61
2022/11/25 06:44:17;;;;;;;2.08;0.93;;;;;;;23.33;41.73;94891.88;5002194;28;20118;-60
2022/11/25 06:46:42;;;;;;;1.13;0.70;;;;;;;23.96;41.86;94964.53;4991578;28;20045;-64
2022/11/25 06:49:07;;;;;;;2.85;1.00;;;;;;;24.02;41.37;94972.66;4985907;28;20084;-59
2022/11/25 06:51:33;;;;;;;1.63;0.80;;;;;;;23.41;41.69;94876.44;5005150;28;20038;-58
2022/11/25 06:53:58;;;;;;;1.02;0.65;;;;;;;23.40;41.57;94891.31;5009538;28;20045;-60
2022/11/25 06:56:25;;;;;;;1.48;0.98;;;;;;;23.98;41.80;94962.03;5017353;28;20041;-60
2022/11/25 06:58:51;;;;;;;1.90;0.80;;;;;;;23.94;41.58;94980.66;5004847;28;20025;-60
2022/11/25 07:01:21;;;;;;;1.45;0.80;;;;;;;23.78;41.46;94947.41;5000751;28;20037;-60
2022/11/25 07:03:48;;;;;;;2.28;0.93;;;;;;;23.91;40.70;94929.88;5003111;28;20099;-60
2022/11/25 07:06:14;;;;;;;1.20;0.93;;;;;;;24.55;40.87;94975.94;5006316;28;20536;-59
2022/11/25 07:08:39;;;;;;;1.95;0.88;;;;;;;23.96;40.73;94899.09;5017082;28;20050;-61
2022/11/25 07:11:06;;;;;;;1.20;0.85;;;;;;;24.46;40.98;94989.25;4983672;28;20150;-63
2022/11/25 07:13:32;;;;;;;1.17;0.80;;;;;;;24.37;40.67;95003.25;4999997;28;20048;-60
2022/11/25 07:16:02;;;;;;;1.67;0.80;;;;;;;24.21;41.26;94990.50;4982581;28;20038;-61
2022/11/25 07:18:35;;;;;;;1.25;0.73;;;;;;;24.31;41.08;94999.81;4999803;28;20433;-61
2022/11/25 07:21:04;;;;;;;1.80;0.93;;;;;;;23.32;40.71;94840.59;5007886;28;20156;-60
2022/11/25 07:23:29;;;;;;;1.33;0.90;;;;;;;24.30;40.72;94992.88;5010208;28;20057;-61
2022/11/25 07:25:59;;;;;;;2.10;0.80;;;;;;;24.34;40.89;94998.81;5001906;28;20068;-59
2022/11/25 07:28:25;;;;;;;1.60;0.70;;;;;;;24.47;40.71;95015.28;5003220;28;20060;-60
2022/11/25 07:30:50;;;;;;;1.40;0.60;;;;;;;24.57;40.85;94991.81;4984651;28;20405;-61
2022/11/25 07:33:16;;;;;;;1.10;0.68;;;;;;;24.71;40.32;94990.63;5009976;28;20054;-60
2022/11/25 07:35:41;;;;;;;1.08;0.80;;;;;;;24.95;39.54;94992.00;5015875;28;20053;-62
2022/11/25 07:38:06;;;;;;;0.93;0.80;;;;;;;24.90;39.77;94994.78;4987165;28;20128;-61
2022/11/25 07:40:32;;;;;;;1.20;0.70;;;;;;;24.92;39.61;94981.38;4987078;28;20064;-61
2022/11/25 07:42:58;;;;;;;1.10;0.70;;;;;;;24.95;40.08;95002.91;5003913;28;20026;-61
2022/11/25 07:45:23;;;;;;;1.55;0.90;;;;;;;25.10;39.35;95014.16;4988568;28;20084;-64
2022/11/25 07:47:48;;;;;;;1.08;0.73;;;;;;;24.95;39.42;94972.88;4995902;28;20061;-62
2022/11/25 07:50:14;;;;;;;1.17;0.80;;;;;;;25.00;39.26;94999.38;5001016;28;20068;-60
2022/11/25 07:52:39;;;;;;;1.55;0.77;;;;;;;25.16;39.32;95017.53;5003646;28;20045;-62
2022/11/25 07:55:05;;;;;;;1.30;0.73;;;;;;;25.18;39.14;95004.06;5004816;28;20386;-62
2022/11/25 07:57:31;;;;;;;1.33;0.73;;;;;;;25.13;38.71;94985.78;4987603;28;20417;-61
2022/11/25 07:59:56;;;;;;;0.95;0.75;;;;;;;25.30;38.72;95010.84;5000642;28;20578;-62
2022/11/25 08:02:22;;;;;;;1.75;0.93;;;;;;;25.41;38.98;95016.13;5001849;28;20518;-61
2022/11/25 08:04:47;;;;;;;1.38;0.80;;;;;;;25.25;39.12;95030.81;4987242;28;20054;-62
2022/11/25 08:07:13;;;;;;;1.58;0.70;;;;;;;25.48;38.52;95034.66;5002581;28;20409;-59
2022/11/25 08:09:38;;;;;;;1.48;0.80;;;;;;;25.50;38.42;95023.91;4989401;28;20383;-60
2022/11/25 08:12:04;;;;;;;1.25;0.90;;;;;;;25.57;38.33;95017.84;4998722;28;20753;-61
2022/11/25 08:14:29;;;;;;;1.27;0.88;;;;;;;25.35;38.58;95023.66;4998094;28;20478;-60
2022/11/25 08:16:55;;;;;;;1.35;0.80;;;;;;;25.34;38.73;95033.16;4987732;28;20045;-61
2022/11/25 08:19:20;;;;;;;0.90;0.50;;;;;;;25.23;38.84;95022.41;5016893;28;20044;-60
2022/11/25 08:21:48;;;;;;;1.02;0.60;;;;;;;25.27;38.91;95022.81;5005886;28;20029;-61
2022/11/25 08:24:18;;;;;;;2.20;0.82;;;;;;;25.42;38.43;95039.47;5015172;28;20218;-60
2022/11/25 08:26:44;;;;;;;1.15;0.80;;;;;;;25.22;38.85;95039.31;4995195;28;20055;-60
2022/11/25 08:29:14;;;;;;;1.30;0.73;;;;;;;25.38;38.83;95056.19;4988266;28;20042;-61
2022/11/25 08:31:39;;;;;;;1.73;1.13;;;;;;;24.74;38.75;94959.53;4974024;28;20528;-61
2022/11/25 08:34:05;;;;;;;1.35;0.70;;;;;;;25.58;38.41;95041.19;5001334;28;20025;-61
2022/11/25 08:36:31;;;;;;;1.17;0.80;;;;;;;25.53;38.50;95044.75;4993412;28;20033;-61
2022/11/25 08:38:57;;;;;;;1.10;0.70;;;;;;;25.61;38.19;95037.44;4982724;28;20066;-60
2022/11/25 08:41:25;;;;;;;0.93;0.70;;;;;;;25.39;38.54;95037.78;4987974;28;20045;-61
2022/11/25 08:43:50;;;;;;;1.30;0.73;;;;;;;25.57;38.33;95050.66;4988349;28;20093;-62
2022/11/25 08:46:18;;;;;;;1.20;0.70;;;;;;;25.49;38.52;95036.13;4988078;28;20045;-58
2022/11/25 08:48:43;;;;;;;1.40;0.77;;;;;;;25.38;38.21;95003.50;5020981;28;20014;-61
2022/11/25 08:51:12;;;;;;;2.10;0.70;;;;;;;25.53;38.17;95056.44;5019597;28;20047;-59
2022/11/25 08:53:37;;;;;;;0.90;0.70;;;;;;;25.58;37.88;95035.75;5025859;28;20041;-62
2022/11/25 08:56:04;;;;;;;1.13;0.80;;;;;;;25.61;37.89;95018.28;4971164;28;20459;-63
2022/11/25 08:58:29;;;;;;;1.73;0.88;;;;;;;25.73;37.79;95036.00;5005265;28;20037;-61
2022/11/25 09:00:55;;;;;;;1.25;0.85;;;;;;;25.40;37.76;94988.03;5005004;28;20040;-60
2022/11/25 09:03:21;;;;;;;2.15;0.60;;;;;;;25.71;38.10;95038.50;5021011;28;20056;-68
2022/11/25 09:05:47;;;;;;;1.83;0.80;;;;;;;25.53;38.37;95028.34;4990078;28;20049;-60
2022/11/25 09:08:12;;;;;;;1.02;0.60;;;;;;;24.61;37.91;94885.78;5007446;28;20068;-60
2022/11/25 09:10:38;;;;;;;1.17;0.70;;;;;;;25.78;38.14;95043.38;5019167;28;20072;-60
2022/11/25 09:13:04;;;;;;;1.45;0.60;;;;;;;25.84;37.69;95037.28;5029760;28;20425;-60
2022/11/25 09:15:29;;;;;;;1.48;0.82;;;;;;;25.60;38.28;95033.94;5000925;28;20121;-60
2022/11/25 09:17:59;;;;;;;1.02;0.75;;;;;;;25.75;38.43;95052.63;5006657;28;20048;-61
2022/11/25 09:20:24;;;;;;;4.15;1.02;;;;;;;25.79;38.74;95050.31;5022654;28;20057;-62
2022/11/25 09:22:50;;;;;;;2.83;0.88;;;;;;;25.80;39.18;95053.25;4982073;28;20049;-66
2022/11/25 09:25:15;;;;;;;2.42;0.90;;;;;;;24.97;39.02;94912.97;4985297;28;20050;-71
2022/11/25 09:27:40;;;;;;;2.00;0.80;;;;;;;26.12;38.48;95040.22;4966520;28;20041;-64
2022/11/25 09:30:07;;;;;;;2.38;0.98;;;;;;;26.00;38.92;95049.91;4968923;28;20568;-61
2022/11/25 09:32:32;;;;;;;2.17;0.88;;;;;;;25.33;39.64;94983.22;4967540;28;20053;-70
2022/11/25 09:34:57;;;;;;;3.40;1.10;;;;;;;25.92;38.85;95051.81;4975746;28;20025;-65
2022/11/25 09:37:23;;;;;;;2.65;0.85;;;;;;;25.24;39.18;94952.78;4988162;28;20435;-61
2022/11/25 10:00:39;;;;;;;1.70;1.17;;;;;;;26.04;38.76;95039.41;4952438;23;20059;-62
2022/11/25 10:03:15;;;;;;;1.70;1.00;;;;;;;26.27;38.54;95045.91;4925830;29;20057;-62
2022/11/25 10:06:20;;;;;;;2.38;1.40;;;;;;;26.09;38.76;95052.22;4917665;29;20062;-62
2022/11/25 10:08:48;;;;;;;2.20;1.20;;;;;;;26.21;38.78;95048.03;4903758;29;20044;-62
2022/11/25 10:11:19;;;;;;;2.03;1.15;;;;;;;26.14;38.61;95059.59;4918748;28;20081;-60
2022/11/25 10:13:55;;;;;;;1.48;1.00;;;;;;;26.17;38.77;95058.53;4938386;28;20052;-62
2022/11/25 10:16:35;;;;;;;2.03;1.00;;;;;;;24.86;38.42;94853.06;4938118;29;20820;-61
2022/11/25 10:19:12;;;;;;;2.38;1.02;;;;;;;25.63;38.07;94955.56;4987538;23;20208;-63
2022/11/25 10:21:38;;;;;;;1.95;1.17;;;;;;;25.85;37.95;94962.13;4971867;28;20038;-63
2022/11/25 10:24:04;;;;;;;2.58;1.05;;;;;;;26.20;38.41;95089.63;4985792;28;20052;-63
2022/11/25 10:26:35;;;;;;;2.83;1.35;;;;;;;26.16;38.32;95057.09;4974763;28;20121;-64
2022/11/25 10:29:12;;;;;;;2.25;1.20;;;;;;;26.06;38.71;95058.75;4980225;28;20145;-64
2022/11/25 10:31:38;;;;;;;2.00;1.10;;;;;;;25.88;38.65;95026.75;4989589;28;20062;-63
2022/11/25 10:34:30;;;;;;;2.70;0.98;;;;;;;26.51;38.03;95051.19;4988230;28;20026;-63
2022/11/25 10:36:56;;;;;;;2.50;1.20;;;;;;;26.68;37.71;95037.88;4971525;28;20029;-64
2022/11/25 10:39:27;;;;;;;2.03;1.10;;;;;;;26.80;37.63;95043.34;4968129;28;20073;-63
2022/11/25 10:42:13;;;;;;;2.47;1.60;;;;;;;25.90;37.86;94922.25;4967688;28;20050;-63
2022/11/25 10:44:39;;;;;;;4.72;1.75;;;;;;;26.83;37.64;95064.19;4957517;28;20129;-63
2022/11/25 10:47:35;;;;;;;9.45;2.63;;;;;;;26.64;38.36;95051.19;4966925;28;20054;-64
2022/11/25 10:50:07;;;;;;;8.98;2.80;;;;;;;26.79;38.26;95043.88;4974338;28;20047;-64
2022/11/25 10:52:36;;;;;;;9.02;2.90;;;;;;;26.76;38.19;95022.28;4987852;28;20038;-64
2022/11/25 10:55:28;;;;;;;8.25;2.83;;;;;;;26.44;39.04;95052.56;4972063;28;20042;-62
2022/11/25 10:57:54;;;;;;;6.78;2.65;;;;;;;26.38;39.00;95056.66;4972363;28;20084;-64
2022/11/25 11:00:31;;;;;;;5.53;2.40;;;;;;;25.39;39.08;94914.75;4994461;28;20058;-65
2022/11/25 11:02:57;;;;;;;5.97;2.20;;;;;;;26.25;39.33;95051.19;4973803;28;20049;-64
2022/11/25 11:05:29;;;;;;;6.03;2.17;;;;;;;26.00;38.88;94976.00;4954564;28;20143;-64
2022/11/25 11:08:27;;;;;;;6.50;2.35;;;;;;;26.73;38.52;95064.44;4999311;28;20060;-61
2022/11/25 11:11:34;;;;;;;6.13;2.30;;;;;;;26.77;38.84;95060.13;4951431;28;20045;-62
2022/11/25 11:14:18;;;;;;;5.78;1.95;;;;;;;26.46;39.35;95046.56;4991044;28;20066;-63
2022/11/25 11:16:50;;;;;;;5.63;2.28;;;;;;;26.70;39.04;95082.66;4983293;28;20510;-63
2022/11/25 11:19:25;;;;;;;7.85;2.33;;;;;;;26.62;38.49;95081.84;4982466;28;20073;-63
2022/11/25 11:21:51;;;;;;;6.15;2.33;;;;;;;26.53;38.53;95062.34;4959398;28;20076;-63
2022/11/25 11:24:22;;;;;;;7.05;2.10;;;;;;;26.69;38.67;95058.53;5002620;28;20509;-64
2022/11/25 11:26:59;;;;;;;5.85;2.42;;;;;;;26.51;38.75;95087.53;4988725;28;20053;-63
2022/11/25 11:29:25;;;;;;;4.90;1.77;;;;;;;26.49;38.85;95079.09;4984233;28;20125;-64
2022/11/25 11:31:56;;;;;;;6.45;2.10;;;;;;;25.42;39.23;94954.72;4987220;28;20128;-64
2022/11/25 11:34:32;;;;;;;7.00;2.10;;;;;;;26.52;38.64;95077.31;4956770;28;20050;-64
2022/11/25 11:37:28;;;;;;;5.38;1.63;;;;;;;26.68;38.92;95073.50;4969992;28;20030;-63
2022/11/25 11:40:01;;;;;;;7.20;2.30;;;;;;;26.56;38.88;95073.00;4972673;28;20046;-61
2022/11/25 11:42:45;;;;;;;6.43;2.20;;;;;;;26.66;38.93;95087.00;4975354;28;20045;-61
2022/11/25 11:45:19;;;;;;;5.80;2.03;;;;;;;26.50;39.44;95085.31;4978536;28;20137;-64
2022/11/25 11:48:00;;;;;;;6.97;2.17;;;;;;;26.32;39.16;95102.59;4986378;28;20438;-65
2022/11/25 11:50:33;;;;;;;5.65;2.20;;;;;;;26.46;39.08;95095.88;4991620;28;20050;-61
2022/11/25 11:53:40;;;;;;;5.80;2.20;;;;;;;26.72;38.58;95090.34;4990872;28;20067;-62
2022/11/25 11:56:33;;;;;;;4.38;1.98;;;;;;;26.45;39.45;95083.44;4970721;28;20137;-66
2022/11/25 11:59:08;;;;;;;4.80;2.03;;;;;;;26.69;39.03;95081.19;4983402;28;20093;-65
2022/11/25 12:01:43;;;;;;;4.10;1.50;;;;;;;26.73;38.31;95072.66;4972391;28;20043;-66
2022/11/25 12:04:15;;;;;;;3.50;1.60;;;;;;;26.19;38.21;94968.44;4979843;28;20103;-65
2022/11/25 12:06:40;;;;;;;3.45;1.60;;;;;;;25.84;38.27;94921.63;4997065;28;20081;-65